createdAt,value
2023-09-10T00:00:02.547Z,470.00
2023-09-10T00:01:02.565Z,471.00
2023-09-10T00:02:02.488Z,473.00
2023-09-10T00:03:02.652Z,472.00
2023-09-10T00:04:02.479Z,471.00
2023-09-10T00:05:02.573Z,471.00
2023-09-10T00:06:02.407Z,471.00
2023-09-10T00:07:02.492Z,468.00
2023-09-10T00:08:02.456Z,469.00
2023-09-10T00:09:02.394Z,465.00
2023-09-10T00:10:02.379Z,464.00
2023-09-10T00:11:02.505Z,462.00
2023-09-10T00:12:02.337Z,463.00
2023-09-10T00:13:02.462Z,463.00
2023-09-10T00:14:02.364Z,464.00
2023-09-10T00:15:02.348Z,466.00
2023-09-10T00:16:02.352Z,467.00
2023-09-10T00:17:02.414Z,468.00
2023-09-10T00:18:02.342Z,468.00
2023-09-10T00:19:02.271Z,468.00
2023-09-10T00:20:02.343Z,468.00
2023-09-10T00:21:02.309Z,468.00
2023-09-10T00:22:02.205Z,470.00
2023-09-10T00:23:02.398Z,470.00
2023-09-10T00:24:02.174Z,472.00
2023-09-10T00:25:02.214Z,471.00
2023-09-10T00:26:02.170Z,473.00
2023-09-10T00:27:02.225Z,473.00
2023-09-10T00:28:02.131Z,472.00
2023-09-10T00:29:02.241Z,472.00
2023-09-10T00:30:02.100Z,472.00
2023-09-10T00:31:02.191Z,472.00
2023-09-10T00:32:02.235Z,471.00
2023-09-10T00:33:02.185Z,473.00
2023-09-10T00:34:02.040Z,473.00
2023-09-10T00:35:02.187Z,474.00
2023-09-10T00:36:02.021Z,474.00
2023-09-10T00:37:02.108Z,474.00
2023-09-10T00:38:02.307Z,473.00
2023-09-10T00:39:02.009Z,469.00
2023-09-10T00:40:01.967Z,470.00
2023-09-10T00:41:02.121Z,469.00
2023-09-10T00:42:01.992Z,471.00
2023-09-10T00:43:02.111Z,475.00
2023-09-10T00:44:02.046Z,474.00
2023-09-10T00:45:01.949Z,473.00
2023-09-10T00:46:01.930Z,474.00
2023-09-10T00:47:01.956Z,475.00
2023-09-10T00:48:01.921Z,478.00
2023-09-10T00:49:01.871Z,479.00
2023-09-10T00:50:01.881Z,480.00
2023-09-10T00:51:01.933Z,481.00
2023-09-10T00:52:01.827Z,482.00
2023-09-10T00:53:01.900Z,477.00
2023-09-10T00:54:01.780Z,499.00
2023-09-10T00:55:01.821Z,491.00
2023-09-10T00:56:01.801Z,484.00
2023-09-10T00:57:01.854Z,489.00
2023-09-10T00:58:01.748Z,488.00
2023-09-10T00:59:01.855Z,487.00
2023-09-10T01:00:01.726Z,487.00
2023-09-10T01:01:01.784Z,487.00
2023-09-10T01:02:01.729Z,485.00
2023-09-10T01:03:01.929Z,486.00
2023-09-10T01:04:01.650Z,484.00
2023-09-10T01:05:01.769Z,484.00
2023-09-10T01:06:01.630Z,486.00
2023-09-10T01:07:01.705Z,485.00
2023-09-10T01:08:01.660Z,487.00
2023-09-10T01:09:01.607Z,488.00
2023-09-10T01:10:01.642Z,488.00
2023-09-10T01:11:01.721Z,487.00
2023-09-10T01:12:01.542Z,486.00
2023-09-10T01:13:01.641Z,484.00
2023-09-10T01:14:01.594Z,483.00
2023-09-10T01:15:01.572Z,484.00
2023-09-10T01:16:01.492Z,481.00
2023-09-10T01:17:01.715Z,480.00
2023-09-10T01:18:01.529Z,481.00
2023-09-10T01:19:01.485Z,476.00
2023-09-10T01:20:01.466Z,478.00
2023-09-10T01:21:01.538Z,480.00
2023-09-10T01:22:01.413Z,482.00
2023-09-10T01:23:01.479Z,480.00
2023-09-10T01:24:01.393Z,480.00
2023-09-10T01:25:01.452Z,479.00
2023-09-10T01:26:01.406Z,477.00
2023-09-10T01:27:01.438Z,477.00
2023-09-10T01:28:01.342Z,482.00
2023-09-10T01:29:02.486Z,481.00
2023-09-10T01:30:01.346Z,482.00
2023-09-10T01:31:01.406Z,480.00
2023-09-10T01:32:01.307Z,479.00
2023-09-10T01:33:01.394Z,478.00
2023-09-10T01:34:01.249Z,479.00
2023-09-10T01:35:01.414Z,478.00
2023-09-10T01:36:01.222Z,475.00
2023-09-10T01:37:01.311Z,472.00
2023-09-10T01:38:01.270Z,473.00
2023-09-10T01:39:01.236Z,473.00
2023-09-10T01:40:01.180Z,472.00
2023-09-10T01:41:01.319Z,470.00
2023-09-10T01:42:01.153Z,469.00
2023-09-10T01:43:01.251Z,464.00
2023-09-10T01:44:01.243Z,462.00
2023-09-10T01:45:01.176Z,465.00
2023-09-10T01:46:01.138Z,464.00
2023-09-10T01:47:01.175Z,467.00
2023-09-10T01:48:01.109Z,471.00
2023-09-10T01:49:01.099Z,471.00
2023-09-10T01:50:01.052Z,472.00
2023-09-10T01:51:01.113Z,473.00
2023-09-10T01:52:01.015Z,475.00
2023-09-10T01:53:01.073Z,476.00
2023-09-10T01:54:01.001Z,476.00
2023-09-10T01:55:01.028Z,476.00
2023-09-10T01:56:01.030Z,475.00
2023-09-10T01:57:01.055Z,473.00
2023-09-10T01:58:00.940Z,473.00
2023-09-10T01:59:01.017Z,471.00
2023-09-10T02:00:00.916Z,467.00
2023-09-10T02:01:00.971Z,467.00
2023-09-10T02:02:00.987Z,467.00
2023-09-10T02:03:01.208Z,465.00
2023-09-10T02:04:01.042Z,465.00
2023-09-10T02:05:01.026Z,463.00
2023-09-10T02:06:00.843Z,462.00
2023-09-10T02:07:00.914Z,461.00
2023-09-10T02:08:00.831Z,466.00
2023-09-10T02:09:00.834Z,465.00
2023-09-10T02:10:00.790Z,466.00
2023-09-10T02:11:01.029Z,464.00
2023-09-10T02:12:00.752Z,467.00
2023-09-10T02:13:00.848Z,469.00
2023-09-10T02:14:00.761Z,468.00
2023-09-10T02:15:00.767Z,464.00
2023-09-10T02:16:00.744Z,465.00
2023-09-10T02:17:00.772Z,465.00
2023-09-10T02:18:00.748Z,463.00
2023-09-10T02:19:00.757Z,463.00
2023-09-10T02:20:00.682Z,464.00
2023-09-10T02:21:00.720Z,464.00
2023-09-10T02:22:00.629Z,462.00
2023-09-10T02:23:00.721Z,463.00
2023-09-10T02:24:00.597Z,467.00
2023-09-10T02:25:00.645Z,468.00
2023-09-10T02:26:00.601Z,470.00
2023-09-10T02:27:00.675Z,471.00
2023-09-10T02:28:00.537Z,474.00
2023-09-10T02:29:00.667Z,477.00
2023-09-10T02:30:00.526Z,478.00
2023-09-10T02:31:00.577Z,476.00
2023-09-10T02:32:00.563Z,476.00
2023-09-10T02:33:00.619Z,475.00
2023-09-10T02:34:00.459Z,473.00
2023-09-10T02:35:00.628Z,472.00
2023-09-10T02:36:00.429Z,474.00
2023-09-10T02:37:00.512Z,476.00
2023-09-10T02:38:00.559Z,478.00
2023-09-10T02:39:00.441Z,477.00
2023-09-10T02:40:00.396Z,475.00
2023-09-10T02:41:00.536Z,475.00
2023-09-10T02:42:00.360Z,477.00
2023-09-10T02:43:00.472Z,477.00
2023-09-10T02:44:00.366Z,477.00
2023-09-10T02:45:00.373Z,478.00
2023-09-10T02:46:00.394Z,474.00
2023-09-10T02:47:00.366Z,470.00
2023-09-10T02:48:01.057Z,473.00
2023-09-10T02:49:00.907Z,474.00
2023-09-10T02:50:00.632Z,473.00
2023-09-10T02:51:00.933Z,474.00
2023-09-10T02:52:00.838Z,474.00
2023-09-10T02:53:00.289Z,478.00
2023-09-10T02:54:00.204Z,481.00
2023-09-10T02:55:01.066Z,481.00
2023-09-10T02:56:00.234Z,481.00
2023-09-10T02:57:21.254Z,484.00
2023-09-10T02:58:00.165Z,482.00
2023-09-10T02:59:00.264Z,483.00
2023-09-10T03:00:00.140Z,482.00
2023-09-10T03:01:00.203Z,484.00
2023-09-10T03:02:00.127Z,483.00
2023-09-10T03:03:00.161Z,482.00
2023-09-10T03:04:00.113Z,481.00
2023-09-10T03:05:00.306Z,477.00
2023-09-10T03:06:00.050Z,479.00
2023-09-10T03:07:00.125Z,482.00
2023-09-10T03:08:00.036Z,483.00
2023-09-10T03:09:00.032Z,480.00
2023-09-10T03:09:59.981Z,482.00
2023-09-10T03:11:00.115Z,484.00
2023-09-10T03:11:59.959Z,482.00
2023-09-10T03:13:00.054Z,482.00
2023-09-10T03:14:00.009Z,483.00
2023-09-10T03:14:59.977Z,483.00
2023-09-10T03:15:59.978Z,483.00
2023-09-10T03:16:59.964Z,486.00
2023-09-10T03:17:59.896Z,490.00
2023-09-10T03:18:59.901Z,491.00
2023-09-10T03:19:59.871Z,492.00
2023-09-10T03:20:59.911Z,495.00
2023-09-10T03:21:59.822Z,497.00
2023-09-10T03:22:59.944Z,500.00
2023-09-10T03:23:59.784Z,501.00
2023-09-10T03:24:59.853Z,499.00
2023-09-10T03:25:59.840Z,498.00
2023-09-10T03:26:59.853Z,497.00
2023-09-10T03:27:59.733Z,497.00
2023-09-10T03:28:59.892Z,497.00
2023-09-10T03:29:59.708Z,497.00
2023-09-10T03:30:59.824Z,497.00
2023-09-10T03:31:59.738Z,499.00
2023-09-10T03:32:59.772Z,498.00
2023-09-10T03:33:59.667Z,500.00
2023-09-10T03:34:59.821Z,501.00
2023-09-10T03:35:59.670Z,499.00
2023-09-10T03:36:59.726Z,501.00
2023-09-10T03:37:59.624Z,506.00
2023-09-10T03:38:59.637Z,504.00
2023-09-10T03:39:59.581Z,506.00
2023-09-10T03:40:59.628Z,508.00
2023-09-10T03:41:59.678Z,508.00
2023-09-10T03:42:59.564Z,509.00
2023-09-10T03:43:59.640Z,508.00
2023-09-10T03:44:59.672Z,508.00
2023-09-10T03:45:59.490Z,509.00
2023-09-10T03:46:59.660Z,508.00
2023-09-10T03:47:59.496Z,509.00
2023-09-10T03:48:59.504Z,510.00
2023-09-10T03:49:59.485Z,509.00
2023-09-10T03:50:59.514Z,507.00
2023-09-10T03:51:59.419Z,507.00
2023-09-10T03:52:59.516Z,506.00
2023-09-10T03:53:59.392Z,506.00
2023-09-10T03:55:00.477Z,506.00
2023-09-10T03:55:59.408Z,507.00
2023-09-10T03:56:59.466Z,509.00
2023-09-10T03:57:59.344Z,510.00
2023-09-10T03:58:59.460Z,512.00
2023-09-10T03:59:59.321Z,511.00
2023-09-10T04:00:59.415Z,511.00
2023-09-10T04:01:59.359Z,511.00
2023-09-10T04:02:59.329Z,511.00
2023-09-10T04:03:59.272Z,509.00
2023-09-10T04:04:59.454Z,508.00
2023-09-10T04:05:59.231Z,507.00
2023-09-10T04:06:59.232Z,510.00
2023-09-10T04:07:59.247Z,509.00
2023-09-10T04:08:59.254Z,509.00
2023-09-10T04:09:59.173Z,508.00
2023-09-10T04:10:59.262Z,508.00
2023-09-10T04:11:59.200Z,513.00
2023-09-10T04:12:59.175Z,515.00
2023-09-10T04:13:59.173Z,515.00
2023-09-10T04:14:59.186Z,516.00
2023-09-10T04:15:59.107Z,518.00
2023-09-10T04:17:00.265Z,516.00
2023-09-10T04:17:59.180Z,515.00
2023-09-10T04:18:59.113Z,517.00
2023-09-10T04:19:59.088Z,516.00
2023-09-10T04:20:59.128Z,514.00
2023-09-10T04:21:59.024Z,516.00
2023-09-10T04:22:59.104Z,515.00
2023-09-10T04:23:59.017Z,516.00
2023-09-10T04:24:59.058Z,514.00
2023-09-10T04:25:58.991Z,516.00
2023-09-10T04:26:59.095Z,518.00
2023-09-10T04:27:58.939Z,517.00
2023-09-10T04:28:59.058Z,515.00
2023-09-10T04:29:58.913Z,515.00
2023-09-10T04:30:59.036Z,515.00
2023-09-10T04:31:58.937Z,510.00
2023-09-10T04:32:59.097Z,512.00
2023-09-10T04:33:58.877Z,512.00
2023-09-10T04:34:58.993Z,512.00
2023-09-10T04:35:58.837Z,512.00
2023-09-10T04:36:58.964Z,512.00
2023-09-10T04:37:58.880Z,512.00
2023-09-10T04:38:58.841Z,512.00
2023-09-10T04:39:58.784Z,511.00
2023-09-10T04:40:58.846Z,513.00
2023-09-10T04:41:58.754Z,513.00
2023-09-10T04:42:58.776Z,513.00
2023-09-10T04:43:58.759Z,513.00
2023-09-10T04:44:58.794Z,513.00
2023-09-10T04:45:58.756Z,513.00
2023-09-10T04:46:58.768Z,515.00
2023-09-10T04:47:58.701Z,517.00
2023-09-10T04:48:58.712Z,517.00
2023-09-10T04:49:58.668Z,519.00
2023-09-10T04:50:58.733Z,519.00
2023-09-10T04:51:58.649Z,518.00
2023-09-10T04:52:58.731Z,514.00
2023-09-10T04:53:58.595Z,516.00
2023-09-10T04:54:58.666Z,517.00
2023-09-10T04:55:58.597Z,517.00
2023-09-10T04:57:00.504Z,517.00
2023-09-10T04:57:58.595Z,517.00
2023-09-10T04:58:59.687Z,517.00
2023-09-10T04:59:58.521Z,517.00
2023-09-10T05:00:58.597Z,517.00
2023-09-10T05:01:58.529Z,517.00
2023-09-10T05:02:58.724Z,516.00
2023-09-10T05:03:58.523Z,513.00
2023-09-10T05:04:58.645Z,513.00
2023-09-10T05:05:58.455Z,512.00
2023-09-10T05:06:58.545Z,510.00
2023-09-10T05:07:58.473Z,509.00
2023-09-10T05:08:58.454Z,510.00
2023-09-10T05:09:58.408Z,508.00
2023-09-10T05:10:58.453Z,507.00
2023-09-10T05:11:58.385Z,509.00
2023-09-10T05:12:58.372Z,508.00
2023-09-10T05:14:00.972Z,510.00
2023-09-10T05:14:58.425Z,510.00
2023-09-10T05:15:58.441Z,510.00
2023-09-10T05:16:58.459Z,507.00
2023-09-10T05:17:58.370Z,507.00
2023-09-10T05:18:58.273Z,505.00
2023-09-10T05:19:58.344Z,506.00
2023-09-10T05:20:58.270Z,508.00
2023-09-10T05:21:59.264Z,509.00
2023-09-10T05:22:58.357Z,510.00
2023-09-10T05:23:59.287Z,508.00
2023-09-10T05:24:58.216Z,508.00
2023-09-10T05:25:58.296Z,507.00
2023-09-10T05:26:58.180Z,508.00
2023-09-10T05:27:58.188Z,510.00
2023-09-10T05:28:58.202Z,510.00
2023-09-10T05:29:58.224Z,510.00
2023-09-10T05:30:58.120Z,509.00
2023-09-10T05:31:58.249Z,508.00
2023-09-10T05:32:58.235Z,507.00
2023-09-10T05:33:58.136Z,507.00
2023-09-10T05:34:58.196Z,508.00
2023-09-10T05:35:58.140Z,509.00
2023-09-10T05:36:58.055Z,510.00
2023-09-10T05:37:58.078Z,512.00
2023-09-10T05:38:58.027Z,513.00
2023-09-10T05:39:58.058Z,512.00
2023-09-10T05:40:58.075Z,510.00
2023-09-10T05:41:58.081Z,509.00
2023-09-10T05:42:57.973Z,509.00
2023-09-10T05:43:58.010Z,509.00
2023-09-10T05:44:57.962Z,507.00
2023-09-10T05:45:58.024Z,508.00
2023-09-10T05:46:57.988Z,508.00
2023-09-10T05:47:58.067Z,506.00
2023-09-10T05:48:58.169Z,505.00
2023-09-10T05:49:57.966Z,503.00
2023-09-10T05:50:57.909Z,504.00
2023-09-10T05:51:57.956Z,507.00
2023-09-10T05:52:57.877Z,506.00
2023-09-10T05:53:57.881Z,505.00
2023-09-10T05:54:57.814Z,502.00
2023-09-10T05:55:57.925Z,502.00
2023-09-10T05:56:57.789Z,503.00
2023-09-10T05:57:57.783Z,505.00
2023-09-10T05:58:57.848Z,501.00
2023-09-10T05:59:57.798Z,502.00
2023-09-10T06:00:57.738Z,504.00
2023-09-10T06:01:57.936Z,505.00
2023-09-10T06:02:57.742Z,509.00
2023-09-10T06:03:57.894Z,508.00
2023-09-10T06:04:57.869Z,508.00
2023-09-10T06:05:59.546Z,504.00
2023-09-10T06:06:57.652Z,501.00
2023-09-10T06:07:57.690Z,494.00
2023-09-10T06:08:57.628Z,462.00
2023-09-10T06:09:57.690Z,481.00
2023-09-10T06:10:57.641Z,488.00
2023-09-10T06:11:57.683Z,492.00
2023-09-10T06:12:57.601Z,487.00
2023-09-10T06:13:57.680Z,493.00
2023-09-10T06:14:57.552Z,492.00
2023-09-10T06:15:57.658Z,494.00
2023-09-10T06:16:57.639Z,497.00
2023-09-10T06:17:57.688Z,494.00
2023-09-10T06:18:57.520Z,491.00
2023-09-10T06:20:00.434Z,467.00
2023-09-10T06:20:57.495Z,476.00
2023-09-10T06:21:57.571Z,479.00
2023-09-10T06:22:57.531Z,479.00
2023-09-10T06:23:57.505Z,484.00
2023-09-10T06:24:57.403Z,487.00
2023-09-10T06:25:57.543Z,489.00
2023-09-10T06:26:57.918Z,492.00
2023-09-10T06:27:57.385Z,489.00
2023-09-10T06:28:57.399Z,486.00
2023-09-10T06:29:57.408Z,488.00
2023-09-10T06:30:57.325Z,491.00
2023-09-10T06:31:57.538Z,482.00
2023-09-10T06:32:57.406Z,482.00
2023-09-10T06:33:57.334Z,481.00
2023-09-10T06:34:57.322Z,482.00
2023-09-10T06:35:57.352Z,485.00
2023-09-10T06:36:57.249Z,485.00
2023-09-10T06:37:57.279Z,483.00
2023-09-10T06:38:57.317Z,477.00
2023-09-10T06:39:57.291Z,477.00
2023-09-10T06:40:57.255Z,477.00
2023-09-10T06:41:58.209Z,444.00
2023-09-10T06:42:57.181Z,449.00
2023-09-10T06:43:57.255Z,446.00
2023-09-10T06:44:57.154Z,446.00
2023-09-10T06:45:57.262Z,445.00
2023-09-10T06:46:57.168Z,458.00
2023-09-10T06:47:57.162Z,469.00
2023-09-10T06:48:57.101Z,470.00
2023-09-10T06:49:57.175Z,473.00
2023-09-10T06:50:57.087Z,474.00
2023-09-10T06:51:57.154Z,451.00
2023-09-10T06:52:57.115Z,450.00
2023-09-10T06:53:57.069Z,456.00
2023-09-10T06:54:58.102Z,464.00
2023-09-10T06:55:57.093Z,459.00
2023-09-10T06:56:57.004Z,459.00
2023-09-10T06:57:57.001Z,462.00
2023-09-10T06:58:57.031Z,461.00
2023-09-10T06:59:57.011Z,454.00
2023-09-10T07:00:56.970Z,450.00
2023-09-10T07:01:57.044Z,449.00
2023-09-10T07:02:56.927Z,452.00
2023-09-10T07:03:56.947Z,452.00
2023-09-10T07:04:56.941Z,450.00
2023-09-10T07:05:57.135Z,452.00
2023-09-10T07:06:56.860Z,450.00
2023-09-10T07:07:56.893Z,449.00
2023-09-10T07:08:56.832Z,448.00
2023-09-10T07:09:56.884Z,446.00
2023-09-10T07:10:56.844Z,449.00
2023-09-10T07:11:56.897Z,448.00
2023-09-10T07:12:56.766Z,444.00
2023-09-10T07:13:56.833Z,439.00
2023-09-10T07:14:56.748Z,443.00
2023-09-10T07:15:59.532Z,445.00
2023-09-10T07:16:56.780Z,442.00
2023-09-10T07:17:56.976Z,442.00
2023-09-10T07:18:56.703Z,441.00
2023-09-10T07:19:56.805Z,442.00
2023-09-10T07:21:00.227Z,441.00
2023-09-10T07:21:57.030Z,441.00
2023-09-10T07:22:56.754Z,441.00
2023-09-10T07:23:56.733Z,441.00
2023-09-10T07:24:56.645Z,441.00
2023-09-10T07:25:56.733Z,441.00
2023-09-10T07:26:56.598Z,439.00
2023-09-10T07:27:56.627Z,439.00
2023-09-10T07:28:56.607Z,441.00
2023-09-10T07:29:58.724Z,444.00
2023-09-10T07:30:56.534Z,441.00
2023-09-10T07:31:56.686Z,441.00
2023-09-10T07:32:56.572Z,441.00
2023-09-10T07:33:56.556Z,441.00
2023-09-10T07:34:56.509Z,436.00
2023-09-10T07:35:58.241Z,437.00
2023-09-10T07:36:56.470Z,435.00
2023-09-10T07:37:56.534Z,433.00
2023-09-10T07:38:56.470Z,431.00
2023-09-10T07:39:56.527Z,431.00
2023-09-10T07:40:56.529Z,432.00
2023-09-10T07:42:02.214Z,433.00
2023-09-10T07:42:56.441Z,433.00
2023-09-10T07:43:56.471Z,430.00
2023-09-10T07:44:56.362Z,431.00
2023-09-10T07:45:56.514Z,432.00
2023-09-10T07:46:56.364Z,430.00
2023-09-10T07:47:56.377Z,428.00
2023-09-10T07:48:56.316Z,430.00
2023-09-10T07:49:57.458Z,428.00
2023-09-10T07:50:56.272Z,430.00
2023-09-10T07:51:56.381Z,431.00
2023-09-10T07:52:57.203Z,434.00
2023-09-10T07:53:57.338Z,440.00
2023-09-10T07:54:56.225Z,435.00
2023-09-10T07:55:56.352Z,435.00
2023-09-10T07:56:56.218Z,430.00
2023-09-10T07:58:20.075Z,431.00
2023-09-10T07:58:56.946Z,432.00
2023-09-10T07:59:56.230Z,432.00
2023-09-10T08:00:56.182Z,433.00
2023-09-10T08:01:57.208Z,434.00
2023-09-10T08:02:56.233Z,432.00
2023-09-10T08:03:56.240Z,429.00
2023-09-10T08:04:56.763Z,429.00
2023-09-10T08:05:56.355Z,427.00
2023-09-10T08:06:56.556Z,426.00
2023-09-10T08:07:56.155Z,428.00
2023-09-10T08:08:56.067Z,431.00
2023-09-10T08:09:56.150Z,430.00
2023-09-10T08:10:56.062Z,430.00
2023-09-10T08:11:56.110Z,428.00
2023-09-10T08:12:56.005Z,428.00
2023-09-10T08:13:56.135Z,426.00
2023-09-10T08:14:55.960Z,427.00
2023-09-10T08:15:56.029Z,428.00
2023-09-10T08:16:56.027Z,427.00
2023-09-10T08:17:56.070Z,427.00
2023-09-10T08:18:55.912Z,426.00
2023-09-10T08:19:55.980Z,427.00
2023-09-10T08:20:55.904Z,494.00
2023-09-10T08:21:55.929Z,597.00
2023-09-10T08:22:55.871Z,481.00
2023-09-10T08:23:55.892Z,423.00
2023-09-10T08:24:55.819Z,426.00
2023-09-10T08:25:55.967Z,429.00
2023-09-10T08:26:55.839Z,430.00
2023-09-10T08:27:55.881Z,432.00
2023-09-10T08:28:55.843Z,429.00
2023-09-10T08:29:55.881Z,431.00
2023-09-10T08:30:55.851Z,431.00
2023-09-10T08:31:55.858Z,430.00
2023-09-10T08:32:55.819Z,440.00
2023-09-10T08:33:55.844Z,538.00
2023-09-10T08:35:18.985Z,607.00
2023-09-10T08:35:55.672Z,447.00
2023-09-10T08:36:55.774Z,458.00
2023-09-10T08:37:55.676Z,436.00
2023-09-10T08:38:55.705Z,458.00
2023-09-10T08:39:55.691Z,491.00
2023-09-10T08:40:55.776Z,459.00
2023-09-10T08:41:55.636Z,445.00
2023-09-10T08:42:55.641Z,438.00
2023-09-10T08:43:55.660Z,441.00
2023-09-10T08:44:55.739Z,439.00
2023-09-10T08:45:55.725Z,502.00
2023-09-10T08:46:55.757Z,527.00
2023-09-10T08:47:55.585Z,640.00
2023-09-10T08:48:55.583Z,661.00
2023-09-10T08:49:55.538Z,675.00
2023-09-10T08:50:55.604Z,683.00
2023-09-10T08:51:55.510Z,683.00
2023-09-10T08:52:55.550Z,678.00
2023-09-10T08:53:55.502Z,680.00
2023-09-10T08:54:55.520Z,681.00
2023-09-10T08:55:55.471Z,454.00
2023-09-10T08:56:55.546Z,436.00
2023-09-10T08:57:55.482Z,428.00
2023-09-10T08:58:55.529Z,423.00
2023-09-10T08:59:55.401Z,420.00
2023-09-10T09:00:55.664Z,418.00
2023-09-10T09:01:55.480Z,418.00
2023-09-10T09:02:55.489Z,417.00
2023-09-10T09:03:55.620Z,419.00
2023-09-10T12:18:07.084Z,474.00
2023-09-10T12:19:08.078Z,540.00
2023-09-10T12:20:06.758Z,405.00
2023-09-10T12:21:06.738Z,410.00
2023-09-10T12:22:06.767Z,420.00
2023-09-10T12:23:06.739Z,438.00
2023-09-10T12:24:06.787Z,432.00
2023-09-10T12:25:06.690Z,415.00
2023-09-10T12:26:06.717Z,413.00
2023-09-10T12:27:06.667Z,420.00
2023-09-10T12:28:06.773Z,411.00
2023-09-10T12:29:06.651Z,406.00
2023-09-10T12:30:06.630Z,404.00
2023-09-10T12:31:06.632Z,405.00
2023-09-10T12:32:07.706Z,420.00
2023-09-10T12:33:06.645Z,539.00
2023-09-10T12:34:06.561Z,570.00
2023-09-10T12:35:06.562Z,584.00
2023-09-10T12:36:07.027Z,464.00
2023-09-10T12:37:06.512Z,473.00
2023-09-10T12:38:06.813Z,457.00
2023-09-10T12:39:06.500Z,504.00
2023-09-10T12:40:06.477Z,559.00
2023-09-10T12:41:06.465Z,573.00
2023-09-10T12:42:06.585Z,575.00
2023-09-10T12:43:06.404Z,579.00
2023-09-10T12:44:06.420Z,584.00
2023-09-10T12:45:06.430Z,582.00
2023-09-10T12:46:06.440Z,420.00
2023-09-10T12:47:06.479Z,425.00
2023-09-10T12:48:06.525Z,503.00
2023-09-10T12:49:06.333Z,508.00
2023-09-10T12:50:06.389Z,530.00
2023-09-10T12:51:06.322Z,573.00
2023-09-10T12:52:06.364Z,576.00
2023-09-10T12:53:06.302Z,577.00
2023-09-10T12:54:06.327Z,497.00
2023-09-10T12:55:06.246Z,574.00
2023-09-10T12:56:06.310Z,579.00
2023-09-10T12:57:06.231Z,572.00
2023-09-10T12:58:06.302Z,573.00
2023-09-10T12:59:06.202Z,571.00
2023-09-10T13:00:06.222Z,574.00
2023-09-10T13:01:06.252Z,576.00
2023-09-10T13:02:06.334Z,578.00
2023-09-10T13:03:06.594Z,579.00
2023-09-10T13:04:06.215Z,577.00
2023-09-10T13:05:06.133Z,576.00
2023-09-10T13:06:06.165Z,576.00
2023-09-10T13:07:06.103Z,575.00
2023-09-10T13:08:06.199Z,570.00
2023-09-10T13:09:06.141Z,531.00
2023-09-10T13:10:06.085Z,561.00
2023-09-10T13:11:06.073Z,409.00
2023-09-10T13:12:06.097Z,407.00
2023-09-10T13:13:06.022Z,417.00
2023-09-10T13:14:06.038Z,413.00
2023-09-10T13:15:05.993Z,425.00
2023-09-10T13:16:06.248Z,507.00
2023-09-10T13:17:06.748Z,548.00
2023-09-10T13:18:07.104Z,562.00
2023-09-10T13:19:06.019Z,527.00
2023-09-10T13:20:06.011Z,572.00
2023-09-10T13:21:05.966Z,574.00
2023-09-10T13:22:05.965Z,572.00
2023-09-10T13:23:05.991Z,572.00
2023-09-10T13:24:05.926Z,572.00
2023-09-10T13:25:05.851Z,386.00
2023-09-10T13:26:05.903Z,374.00
2023-09-10T13:27:05.865Z,393.00
2023-09-10T13:28:05.962Z,403.00
2023-09-10T13:29:05.849Z,475.00
2023-09-10T13:30:05.828Z,524.00
2023-09-10T13:31:05.821Z,547.00
2023-09-10T13:32:05.875Z,407.00
2023-09-10T13:33:05.827Z,400.00
2023-09-10T13:34:05.751Z,399.00
2023-09-10T13:35:05.781Z,395.00
2023-09-10T13:36:05.793Z,419.00
2023-09-10T13:37:05.682Z,511.00
2023-09-10T13:38:05.845Z,547.00
2023-09-10T13:39:05.680Z,556.00
2023-09-10T13:40:05.747Z,558.00
2023-09-10T13:41:05.736Z,563.00
2023-09-10T13:42:05.742Z,566.00
2023-09-10T13:43:05.616Z,566.00
2023-09-10T13:44:05.690Z,566.00
2023-09-10T13:45:05.601Z,567.00
2023-09-10T13:46:06.685Z,566.00
2023-09-10T13:47:05.616Z,567.00
2023-09-10T13:48:05.685Z,565.00
2023-09-10T13:49:05.552Z,568.00
2023-09-10T13:50:05.646Z,565.00
2023-09-10T13:51:05.555Z,566.00
2023-09-10T13:52:05.592Z,569.00
2023-09-10T13:53:05.507Z,571.00
2023-09-10T13:54:05.481Z,572.00
2023-09-10T13:55:05.503Z,575.00
2023-09-10T13:56:05.536Z,536.00
2023-09-10T13:57:05.452Z,558.00
2023-09-10T13:58:05.523Z,561.00
2023-09-10T13:59:05.459Z,561.00
2023-09-10T14:00:05.433Z,563.00
2023-09-10T14:01:05.424Z,566.00
2023-09-10T14:02:05.510Z,566.00
2023-09-10T14:03:05.481Z,566.00
2023-09-10T14:04:06.392Z,567.00
2023-09-10T14:05:05.386Z,568.00
2023-09-10T14:06:05.523Z,569.00
2023-09-10T14:07:05.297Z,567.00
2023-09-10T14:08:05.399Z,569.00
2023-09-10T14:09:05.334Z,568.00
2023-09-10T14:10:05.311Z,569.00
2023-09-10T14:11:05.321Z,568.00
2023-09-10T14:12:05.311Z,567.00
2023-09-10T14:13:05.230Z,568.00
2023-09-10T14:14:05.268Z,567.00
2023-09-10T14:15:05.225Z,480.00
2023-09-10T14:16:05.305Z,552.00
2023-09-10T14:17:05.183Z,552.00
2023-09-10T14:18:05.288Z,557.00
2023-09-10T14:19:05.141Z,562.00
2023-09-10T14:20:05.251Z,565.00
2023-09-10T14:21:05.134Z,567.00
2023-09-10T14:22:05.204Z,567.00
2023-09-10T14:23:05.120Z,565.00
2023-09-10T14:24:05.125Z,564.00
2023-09-10T14:25:07.765Z,565.00
2023-09-10T14:26:05.140Z,467.00
2023-09-10T14:27:05.072Z,543.00
2023-09-10T14:28:05.129Z,557.00
2023-09-10T14:29:05.106Z,557.00
2023-09-10T14:30:05.037Z,554.00
2023-09-10T14:31:04.972Z,554.00
2023-09-10T14:32:05.192Z,554.00
2023-09-10T14:33:05.105Z,555.00
2023-09-10T14:34:04.976Z,556.00
2023-09-10T14:35:04.947Z,558.00
2023-09-10T14:36:05.007Z,557.00
2023-09-10T14:37:04.927Z,558.00
2023-09-10T14:38:05.037Z,560.00
2023-09-10T14:39:04.904Z,424.00
2023-09-10T14:40:05.014Z,513.00
2023-09-10T14:41:04.869Z,532.00
2023-09-10T14:42:04.832Z,525.00
2023-09-10T14:43:06.567Z,553.00
2023-09-10T14:44:04.866Z,500.00
2023-09-10T14:45:04.820Z,558.00
2023-09-10T14:46:04.919Z,559.00
2023-09-10T14:47:04.868Z,563.00
2023-09-10T14:48:04.945Z,563.00
2023-09-10T14:49:04.734Z,518.00
2023-09-10T14:50:05.811Z,540.00
2023-09-10T14:51:04.761Z,547.00
2023-09-10T14:52:04.774Z,545.00
2023-09-10T14:53:04.791Z,556.00
2023-09-10T14:54:04.712Z,555.00
2023-09-10T14:55:04.655Z,559.00
2023-09-10T14:56:04.769Z,565.00
2023-09-10T14:57:04.708Z,564.00
2023-09-10T14:58:04.726Z,561.00
2023-09-10T14:59:04.619Z,559.00
2023-09-10T15:00:04.649Z,558.00
2023-09-10T15:01:04.675Z,554.00
2023-09-10T15:02:04.698Z,557.00
2023-09-10T15:03:04.764Z,560.00
2023-09-10T15:04:04.724Z,561.00
2023-09-10T15:05:04.562Z,556.00
2023-09-10T15:06:04.592Z,552.00
2023-09-10T15:07:04.499Z,553.00
2023-09-10T15:08:04.644Z,558.00
2023-09-10T15:09:04.499Z,533.00
2023-09-10T15:10:04.508Z,512.00
2023-09-10T15:11:04.467Z,522.00
2023-09-10T15:12:04.522Z,440.00
2023-09-10T15:13:04.481Z,484.00
2023-09-10T15:14:04.490Z,515.00
2023-09-10T15:15:04.443Z,543.00
2023-09-10T15:16:04.509Z,550.00
2023-09-10T15:17:04.386Z,555.00
2023-09-10T15:18:04.560Z,556.00
2023-09-10T15:19:04.383Z,559.00
2023-09-10T15:20:04.441Z,564.00
2023-09-10T15:21:04.346Z,562.00
2023-09-10T15:22:04.413Z,560.00
2023-09-10T15:23:04.328Z,559.00
2023-09-10T15:24:04.313Z,558.00
2023-09-10T15:25:04.268Z,555.00
2023-09-10T15:26:04.343Z,556.00
2023-09-10T15:27:04.263Z,555.00
2023-09-10T15:28:04.344Z,540.00
2023-09-10T15:29:04.260Z,530.00
2023-09-10T15:30:04.250Z,538.00
2023-09-10T15:31:05.337Z,540.00
2023-09-10T15:32:04.307Z,540.00
2023-09-10T15:33:04.214Z,439.00
2023-09-10T15:34:04.177Z,537.00
2023-09-10T15:35:04.171Z,544.00
2023-09-10T15:36:04.218Z,544.00
2023-09-10T15:37:04.109Z,547.00
2023-09-10T15:38:04.265Z,461.00
2023-09-10T15:39:04.103Z,545.00
2023-09-10T15:40:04.119Z,513.00
2023-09-10T15:41:04.087Z,492.00